Observations for Trim Market St
| Time | AQI | Temp °C | Hum % | Pres Pa | CO μg/m³ | H₂S μg/m³ | NO μg/m³ | NO₂ μg/m³ | O₃ μg/m³ | SO₂ μg/m³ | PM1 μg/m³ | PM2.5 μg/m³ | PM10 μg/m³ |
|---|---|---|---|---|---|---|---|---|---|---|---|---|---|
| Thursday 16 July 2026 | |||||||||||||
| 02:46 | 1 | 17.1 | 76 | 38,727 | 0.13 | 0 | 0 | 3.84 | 18.88 | 0 | 7.13 | 9.48 | 13.46 |
| 02:45 | 1 | 17.1 | 76 | 38,575 | 0.13 | 0 | 0 | 2.74 | 15.75 | 0 | 7.84 | 9.95 | 14.05 |
| 02:44 | 1 | 17.1 | 76 | 38,342 | 0.14 | 0 | 0 | 3.74 | 17.2 | 0 | 7.84 | 10.91 | 16.42 |
| 02:43 | 1 | 17.1 | 76 | 38,033 | 0.14 | 0 | 0 | 2.64 | 23.37 | 0 | 8.55 | 9.95 | 17.02 |
| 02:40 | 1 | 17.1 | 76 | 37,609 | 0.13 | 0 | 0 | 3.04 | 17.7 | 0 | 7.13 | 9 | 12.87 |
| 02:37 | 1 | 17.1 | 76 | 37,185 | 0.15 | 0 | 0 | 3.74 | 17.2 | 0 | 5.7 | 9 | 14.05 |
| 02:36 | 1 | 17.1 | 76 | 37,135 | 0.13 | 0 | 0 | 3.44 | 16.63 | 0 | 7.84 | 10.91 | 15.83 |
| 02:33 | 1 | 17.1 | 76 | 37,025 | 0.14 | 0 | 0 | 3.74 | 15.8 | 0 | 6.41 | 9.48 | 13.46 |
| 02:25 | 1 | 17.1 | 76 | 38,094 | 0.15 | 0 | 0 | 3.86 | 17.09 | 0 | 7.13 | 9.97 | 15.85 |
| 02:23 | 1 | 17.2 | 75 | 38,512 | 0.14 | 0 | 0 | 3.95 | 17.43 | 0 | 9.26 | 11.41 | 17.05 |
| 02:22 | 1 | 17.2 | 75 | 38,688 | 0.14 | 0 | 0 | 3.45 | 17.56 | 0 | 7.13 | 9.02 | 14.07 |
| 02:21 | 1 | 17.2 | 75 | 38,972 | 0.13 | 0 | 0 | 5.56 | 16.59 | 0 | 4.99 | 7.11 | 11.1 |
| 02:20 | 1 | 17.2 | 75 | 39,386 | 0.13 | 0 | 0 | 5.57 | 19.71 | 0 | 6.41 | 11.9 | 17.66 |
| 02:19 | 1 | 17.2 | 75 | 39,772 | 0.13 | 0 | 0 | 8.67 | 17.08 | 0 | 7.84 | 10.47 | 15.28 |
| 02:18 | 1 | 17.2 | 75 | 40,268 | 0.14 | 0 | 0 | 4.07 | 14.96 | 0 | 9.26 | 11.42 | 16.47 |
| 02:16 | 1 | 17.2 | 75 | 40,708 | 0.14 | 0 | 0 | 4.28 | 14.18 | 0 | 7.13 | 9.04 | 14.09 |
| 02:14 | 1 | 17.2 | 75 | 41,057 | 0.13 | 0 | 0 | 4.89 | 12.43 | 0 | 7.13 | 9.52 | 14.1 |
| 02:13 | 1 | 17.2 | 75 | 41,222 | 0.13 | 0 | 0 | 4.99 | 14.97 | 0 | 9.26 | 10.48 | 14.7 |
| 02:10 | 1 | 17.2 | 75 | 41,256 | 0.13 | 0 | 0 | 4 | 15.35 | 0 | 8.55 | 10.97 | 15.9 |
| 02:09 | 1 | 17.2 | 75 | 41,246 | 0.13 | 0 | 0 | 5.99 | 16.1 | 0 | 7.84 | 10.48 | 15.29 |